Flight Track Log - Related Links

Times and Time Zones

All times are in EDT time to prevent confusion due to time zone crossing. See the N870DC flight status page for this flight to view local times or setup timezone preferences in your user account.

Time Position Orientation Groundspeed Altitude Reporting Facility
EDT Latitude Longitude Course Direction KTS MPH feet Rate Location/Type
Tue 05:00:21 PM 30.5697 -91.2033 254° West 190 219 32,000  Level Houston Center
Tue 05:01:23 PM 30.5578 -91.2706 258° West 247 284 5,700 -10,944 Descending Houston Center
Tue 05:02:26 PM 30.5394 -91.3531 256° West 259 298 9,200 3,120 Climbing Houston Center
Tue 05:03:28 PM 30.5292 -91.4656 264° West 296 341 12,200 2,806 Climbing Houston Center
Tue 05:04:30 PM 30.5192 -91.5747 264° West 327 376 15,000 2,710 Climbing Houston Center
Tue 05:05:00 PM 30.4351 -91.6764 254° West  Level FlightAware Approximate
Tue 05:05:32 PM 30.5100 -91.6875 265° West 344 396 17,800  Level Houston Center
Tue 05:06:34 PM 30.4511 -91.7831 234° Southwest 372 428 20,600 2,274 Climbing Houston Center
Tue 05:07:36 PM 30.3797 -91.8725 227° Southwest 376 433 22,500 2,129 Climbing Houston Center
Tue 05:08:38 PM 30.2875 -91.9864 227° Southwest 399 459 25,000 2,129 Climbing Houston Center
Tue 05:09:40 PM 30.2094 -92.0819 227° Southwest 406 467 26,900 1,632 Climbing Houston Center
Tue 05:10:43 PM 30.1375 -92.1686 226° Southwest 411 473 28,400 1,584 Climbing Houston Center
Tue 05:11:45 PM 30.0400 -92.2881 227° Southwest 419 482 30,200 1,694 Climbing Houston Center
Tue 05:12:47 PM 29.9592 -92.3861 226° Southwest 422 486 31,900 871 Climbing Houston Center
Tue 05:13:49 PM 29.8792 -92.4911 229° Southwest 432 497 32,000 48 Climbing Houston Center
Tue 05:14:51 PM 29.8347 -92.6189 248° West 430 495 32,000  Level Houston Center
Tue 05:15:53 PM 29.7981 -92.7483 252° West 424 488 32,000  Level Houston Center
Tue 05:16:55 PM 29.7594 -92.8775 251° West 426 490 32,000  Level Houston Center
Tue 05:17:57 PM 29.7125 -93.0306 251° West 422 486 32,000  Level Houston Center
Tue 05:18:59 PM 29.6742 -93.1586 251° West 422 486 32,000  Level Houston Center
Tue 05:20:02 PM 29.6358 -93.2867 251° West 422 486 32,000  Level Houston Center
Tue 05:21:04 PM 29.5989 -93.4103 251° West 415 478 32,000 -48 Level Houston Center
Tue 05:22:06 PM 29.5606 -93.5336 250° West 410 472 31,900 -1,210 Descending Houston Center
Tue 05:23:08 PM 29.5256 -93.6519 251° West 400 460 29,500 -2,516 Descending Houston Center
Tue 05:24:10 PM 29.4886 -93.7700 250° West 393 452 26,700 -2,855 Descending Houston Center
Tue 05:25:12 PM 29.4439 -93.9181 251° West 405 466 23,600 -2,661 Descending Houston Center
Tue 05:26:14 PM 29.4072 -94.0378 251° West 399 459 21,200 -2,274 Descending Houston Center
Tue 05:27:16 PM 29.3725 -94.1492 250° West 384 442 18,900 -2,360 Descending Houston Center
Tue 05:27:43 PM 29.3528 -94.2103 250° West 364 419 17,700 -2,129 Descending Houston Center
Tue 05:28:18 PM 29.3386 -94.2561 250° West 364 419 16,700 -1,967 Descending Houston Center
Tue 05:28:44 PM 29.3228 -94.3103 251° West 350 403 15,700 -1,905 Descending Houston Center
Tue 05:29:21 PM 29.3072 -94.3586 250° West 346 398 14,700 -2,129 Descending Houston Center
Tue 05:29:46 PM 29.2872 -94.4181 249° West 329 379 13,500 -2,032 Descending Houston Center
Tue 05:30:23 PM 29.2758 -94.4569 251° West 335 386 12,600 -1,433 Descending Houston Center
Tue 05:30:53 PM 29.2644 -94.5264 259° West 328 377 11,900 -581 Descending Houston Center
Tue 05:31:25 PM 29.2608 -94.5822 266° West 331 381 12,000 -295 Climbing Houston Center
Tue 05:31:54 PM 29.2567 -94.6400 265° West 327 376 11,600 -774 Descending Houston Center
Tue 05:32:27 PM 29.2528 -94.6839 264° West 324 373 11,200 -968 Descending Houston Center
Tue 05:32:56 PM 29.2486 -94.7319 264° West 277 319 10,600 -968 Descending Houston Center
Tue 05:33:29 PM 29.2467 -94.7733 267° West 293 337 10,200 -984 Descending Houston Center
Tue 05:33:57 PM 29.2425 -94.8214 264° West 277 319 9,600 -968 Descending Houston Center
Tue 05:34:31 PM 29.2406 -94.8597 267° West 278 320 9,200 -984 Descending Houston Center
Tue 05:34:58 PM 29.2364 -94.9086 264° West 269 310 8,600 -968 Descending Houston Center
Tue 05:35:33 PM 29.2336 -94.9439 265° West 269 310 8,200 -1,082 Descending Houston Center
Tue 05:35:59 PM 29.2297 -94.9956 265° West 262 302 7,500 -1,065 Descending Houston Center
Tue 05:36:35 PM 29.2272 -95.0275 265° West 264 304 7,100 -1,258 Descending Houston Center
Tue 05:37:01 PM 29.2231 -95.0778 265° West 258 297 6,200 -1,355 Descending Houston Center
Tue 05:37:37 PM 29.2208 -95.1100 265° West 261 300 5,700 -833 Descending Houston Center

Login

Don't have an account? Register now (free) for customized features, flight alerts, and more!